createdAt,value
2023-01-13T00:04:55.111Z,1.95
2023-01-13T00:09:58.703Z,2.77
2023-01-13T00:15:03.209Z,2.33
2023-01-13T00:20:07.449Z,4.82
2023-01-13T00:25:10.909Z,3.73
2023-01-13T00:30:15.967Z,3.97
2023-01-13T00:35:19.069Z,4.40
2023-01-13T00:40:22.112Z,8.52
2023-01-13T00:45:26.410Z,8.17
2023-01-13T00:50:31.401Z,8.63
2023-01-13T00:55:34.373Z,8.90
2023-01-13T01:00:38.625Z,11.20
2023-01-13T01:05:41.539Z,7.63
2023-01-13T01:10:44.464Z,7.60
2023-01-13T01:15:49.785Z,12.88
2023-01-13T01:20:53.215Z,10.05
2023-01-13T01:25:56.487Z,13.20
2023-01-13T01:31:02.166Z,7.30
2023-01-13T01:36:05.574Z,13.23
2023-01-13T01:41:08.771Z,11.40
2023-01-13T01:46:13.110Z,12.00
2023-01-13T01:51:16.680Z,15.00
2023-01-13T01:56:22.392Z,11.48
2023-01-13T02:01:26.930Z,11.20
2023-01-13T02:06:31.173Z,16.20
2023-01-13T02:11:53.624Z,15.73
2023-01-13T02:17:12.099Z,18.40
2023-01-13T02:22:33.718Z,10.98
2023-01-13T02:28:27.186Z,15.40
2023-01-13T02:33:43.275Z,15.63
2023-01-13T02:38:52.370Z,13.80
2023-01-13T02:44:08.701Z,17.10
2023-01-13T02:49:19.702Z,13.60
2023-01-13T02:54:26.788Z,15.15
2023-01-13T02:59:32.162Z,21.77
2023-01-13T03:04:52.079Z,19.27
2023-01-13T03:10:04.642Z,18.80
2023-01-13T03:15:14.551Z,17.38
2023-01-13T03:20:26.597Z,19.27
2023-01-13T03:25:32.546Z,17.67
2023-01-13T03:30:41.846Z,21.80
2023-01-13T03:35:50.289Z,20.27
2023-01-13T03:40:57.878Z,28.17
2023-01-13T03:46:05.822Z,19.15
2023-01-13T03:51:17.196Z,19.05
2023-01-13T03:56:26.707Z,14.70
2023-01-13T04:01:36.112Z,12.88
2023-01-13T04:06:48.288Z,13.10
2023-01-13T04:11:56.730Z,12.13
2023-01-13T04:16:59.404Z,13.02
2023-01-13T04:22:03.372Z,11.27
2023-01-13T04:27:06.205Z,9.80
2023-01-13T04:32:08.865Z,9.83
2023-01-13T04:37:12.727Z,13.90
2023-01-13T04:42:15.667Z,13.13
2023-01-13T04:47:18.270Z,13.73
2023-01-13T04:52:22.139Z,16.20
2023-01-13T04:57:24.683Z,12.23
2023-01-13T05:02:27.241Z,17.20
2023-01-13T05:07:31.137Z,18.33
2023-01-13T05:12:51.473Z,17.60
2023-01-13T05:17:54.010Z,10.35
2023-01-13T05:23:15.759Z,13.70
2023-01-13T05:28:18.404Z,11.73
2023-01-13T05:33:21.445Z,14.30
2023-01-13T05:38:25.345Z,13.75
2023-01-13T05:43:28.688Z,15.85
2023-01-13T05:48:33.712Z,13.60
2023-01-13T05:53:37.656Z,15.82
2023-01-13T05:58:40.220Z,13.75
2023-01-13T06:03:43.183Z,16.00
2023-01-13T06:08:47.068Z,14.43
2023-01-13T06:13:49.591Z,16.20
2023-01-13T06:18:52.521Z,12.87
2023-01-13T06:23:56.867Z,12.25
2023-01-13T06:28:59.420Z,17.05
2023-01-13T06:34:08.365Z,11.10
2023-01-13T06:39:17.147Z,16.55
2023-01-13T06:44:23.839Z,13.43
2023-01-13T06:49:26.408Z,10.48
2023-01-13T06:54:30.327Z,13.13
2023-01-13T06:59:34.291Z,11.50
2023-01-13T07:04:36.846Z,12.20
2023-01-13T07:09:40.960Z,10.23
2023-01-13T07:15:13.340Z,11.95
2023-01-13T07:20:16.759Z,17.30
2023-01-13T07:25:20.636Z,14.25
2023-01-13T07:30:23.176Z,16.92
2023-01-13T07:35:25.729Z,14.10
2023-01-13T07:40:29.591Z,12.95
2023-01-13T07:45:32.207Z,14.02
2023-01-13T07:50:34.827Z,16.02
2023-01-13T07:55:43.572Z,15.57
2023-01-13T08:00:46.229Z,15.87
2023-01-13T08:05:49.328Z,16.17
2023-01-13T08:10:53.247Z,13.80
2023-01-13T08:16:01.589Z,15.67
2023-01-13T08:21:06.041Z,18.20
2023-01-13T08:26:12.830Z,19.20
2023-01-13T08:31:17.323Z,15.15
2023-01-13T08:36:20.308Z,20.60
2023-01-13T08:41:38.184Z,16.00
2023-01-13T08:46:42.441Z,13.57
2023-01-13T08:51:45.465Z,18.25
2023-01-13T08:56:49.484Z,17.05
2023-01-13T09:01:52.221Z,21.20
2023-01-13T09:06:55.193Z,15.02
2023-01-13T09:12:16.646Z,20.10
2023-01-13T09:17:19.374Z,17.03
2023-01-13T09:22:26.854Z,22.70
2023-01-13T09:27:30.962Z,17.60
2023-01-13T09:32:34.173Z,14.23
2023-01-13T09:37:38.737Z,20.50
2023-01-13T09:43:05.518Z,18.67
2023-01-13T09:48:14.491Z,20.80
2023-01-13T09:53:22.595Z,18.23
2023-01-13T09:58:26.865Z,22.50
2023-01-13T10:03:30.835Z,17.20
2023-01-13T10:08:35.386Z,16.92
2023-01-13T10:13:39.516Z,22.30
2023-01-13T10:18:51.388Z,21.50
2023-01-13T10:24:07.150Z,22.33
2023-01-13T10:29:22.072Z,27.73
2023-01-13T10:34:27.714Z,18.38
2023-01-13T10:39:40.379Z,16.47
2023-01-13T10:44:53.105Z,24.27
2023-01-13T10:50:18.252Z,19.48
2023-01-13T10:55:28.618Z,22.90
2023-01-13T11:00:36.521Z,21.90
2023-01-13T11:05:39.199Z,27.03
2023-01-13T11:10:47.135Z,23.17
2023-01-13T11:15:58.127Z,21.35
2023-01-13T11:21:01.786Z,21.88
2023-01-13T11:26:11.604Z,15.73
2023-01-13T11:31:21.850Z,21.85
2023-01-13T11:36:29.828Z,25.83
2023-01-13T11:41:42.903Z,17.75
2023-01-13T11:46:49.649Z,18.52
2023-01-13T11:51:58.824Z,19.92
2023-01-13T11:57:20.862Z,17.38
2023-01-13T12:02:43.265Z,15.30
2023-01-13T12:07:59.492Z,18.27
2023-01-13T12:13:10.263Z,18.15
2023-01-13T12:18:28.422Z,18.70
2023-01-13T12:23:36.013Z,16.17
2023-01-13T12:28:48.874Z,15.13
2023-01-13T12:34:05.867Z,16.45
2023-01-13T12:39:18.362Z,14.40
2023-01-13T12:44:21.342Z,18.52
2023-01-13T12:49:30.229Z,14.98
2023-01-13T12:55:18.782Z,16.52
2023-01-13T13:00:21.939Z,23.70
2023-01-13T13:05:41.938Z,19.10
2023-01-13T13:10:59.325Z,17.73
2023-01-13T13:16:46.063Z,18.75
2023-01-13T13:22:19.272Z,19.55
2023-01-13T13:27:27.071Z,21.65
2023-01-13T13:32:52.163Z,21.27
2023-01-13T13:38:27.550Z,23.20
2023-01-13T13:43:51.715Z,17.77
2023-01-13T13:48:55.465Z,21.08
2023-01-13T13:54:02.644Z,14.27
2023-01-13T13:59:05.284Z,18.00
2023-01-13T14:04:15.621Z,18.85
2023-01-13T14:09:20.757Z,18.60
2023-01-13T14:14:24.450Z,14.63
2023-01-13T14:19:33.973Z,17.17
2023-01-13T14:24:47.328Z,18.58
2023-01-13T14:29:58.598Z,23.50
2023-01-13T14:35:07.894Z,18.30
2023-01-13T14:40:51.879Z,19.57
2023-01-13T14:46:00.274Z,18.02
2023-01-13T14:51:11.659Z,17.00
2023-01-13T14:56:46.352Z,16.60
2023-01-13T15:01:55.090Z,13.25
2023-01-13T15:07:05.915Z,15.45
2023-01-13T15:12:40.624Z,18.42
2023-01-13T15:17:49.893Z,14.27
2023-01-13T15:22:54.248Z,13.23
2023-01-13T15:28:04.159Z,18.35
2023-01-13T15:33:13.623Z,13.75
2023-01-13T15:38:23.874Z,11.50
2023-01-13T15:43:51.288Z,12.73
2023-01-13T15:48:58.014Z,16.48
2023-01-13T15:54:02.448Z,14.47
2023-01-13T15:59:18.504Z,13.23
2023-01-13T16:04:27.875Z,15.10
2023-01-13T16:09:32.280Z,14.13
2023-01-13T16:14:39.060Z,13.20
2023-01-13T16:19:43.293Z,13.93
2023-01-13T16:24:45.957Z,14.70
2023-01-13T16:29:50.972Z,17.88
2023-01-13T16:34:53.550Z,14.85
2023-01-13T16:39:56.144Z,13.82
2023-01-13T16:45:06.968Z,17.83
2023-01-13T16:50:23.233Z,16.27
2023-01-13T16:55:26.900Z,14.15
2023-01-13T17:00:31.069Z,16.87
2023-01-13T17:05:33.891Z,17.35
2023-01-13T17:10:36.478Z,14.60
2023-01-13T17:15:40.777Z,17.20
2023-01-13T17:20:43.386Z,15.83
2023-01-13T17:25:45.959Z,16.65
2023-01-13T17:30:50.277Z,16.92
2023-01-13T17:35:52.800Z,13.82
2023-01-13T17:40:55.357Z,16.85
2023-01-13T17:45:59.371Z,14.63
2023-01-13T17:51:03.381Z,16.00
2023-01-13T17:56:07.472Z,14.00
2023-01-13T18:01:14.250Z,13.23
2023-01-13T18:06:19.310Z,17.70
2023-01-13T18:11:23.568Z,18.15
2023-01-13T18:16:30.343Z,20.58
2023-01-13T18:21:50.842Z,19.27
2023-01-13T18:27:10.964Z,20.40
2023-01-13T18:39:03.808Z,21.40
2023-01-13T18:44:06.686Z,20.27
2023-01-13T18:49:09.691Z,19.37
2023-01-13T18:54:16.229Z,20.77
2023-01-13T18:59:18.984Z,11.80
2023-01-13T19:04:21.948Z,19.90
2023-01-13T19:09:27.040Z,18.92
2023-01-13T19:14:37.254Z,21.67
2023-01-13T19:19:42.102Z,17.83
2023-01-13T19:24:46.161Z,13.83
2023-01-13T19:29:52.528Z,19.35
2023-01-13T19:34:59.146Z,17.43
2023-01-13T19:40:08.955Z,15.93
2023-01-13T19:45:30.826Z,17.40
2023-01-13T19:50:38.328Z,14.48
2023-01-13T19:55:47.628Z,19.48
2023-01-13T20:00:50.804Z,20.25
2023-01-13T20:05:54.247Z,18.27
2023-01-13T20:11:19.397Z,17.85
2023-01-13T20:16:21.991Z,12.82
2023-01-13T20:21:24.702Z,18.20
2023-01-13T20:26:28.566Z,20.15
2023-01-13T20:31:31.190Z,15.90
2023-01-13T20:36:37.370Z,20.67
2023-01-13T20:41:59.348Z,15.35
2023-01-13T20:47:02.800Z,18.50
2023-01-13T20:52:09.356Z,17.23
2023-01-13T20:57:14.006Z,15.88
2023-01-13T21:02:17.532Z,15.93
2023-01-13T21:07:20.104Z,23.15
2023-01-13T21:12:41.609Z,17.33
2023-01-13T21:18:01.901Z,18.27
2023-01-13T21:23:05.529Z,18.13
2023-01-13T21:28:11.412Z,19.52
2023-01-13T21:33:14.418Z,19.23
2023-01-13T21:38:17.766Z,17.67
2023-01-13T21:43:39.192Z,20.83
2023-01-13T21:48:41.741Z,17.33
2023-01-13T21:53:44.264Z,18.63
2023-01-13T21:58:48.701Z,15.20
2023-01-13T22:04:08.909Z,18.40
2023-01-13T22:09:12.664Z,21.30
2023-01-13T22:14:16.543Z,20.63
2023-01-13T22:19:19.517Z,24.65
2023-01-13T22:24:22.169Z,22.13
2023-01-13T22:29:26.057Z,25.50
2023-01-13T22:34:28.615Z,25.52
2023-01-13T22:39:31.673Z,24.20
2023-01-13T22:44:35.654Z,25.47
2023-01-13T22:49:38.219Z,22.38
2023-01-13T22:54:40.819Z,31.20
2023-01-13T22:59:44.718Z,25.02
2023-01-13T23:04:47.314Z,27.77
2023-01-13T23:09:49.907Z,26.48
2023-01-13T23:14:54.477Z,26.93
2023-01-13T23:19:57.690Z,30.00
2023-01-13T23:25:00.221Z,25.47
2023-01-13T23:30:06.558Z,32.67
2023-01-13T23:35:09.886Z,28.30
2023-01-13T23:40:13.542Z,24.20
2023-01-13T23:45:17.690Z,28.02
2023-01-13T23:50:20.779Z,26.53
2023-01-13T23:55:23.341Z,24.13
